sensor_id;sensor_type;location;lat;lon;timestamp;pressure;altitude;pressure_sealevel;temperature;humidity
70954;BME280;58618;47.490;8.736;2023-05-07T00:02:38;96399.53;;;11.43;100.00
70954;BME280;58618;47.490;8.736;2023-05-07T00:05:26;96404.22;;;11.41;100.00
70954;BME280;58618;47.490;8.736;2023-05-07T00:08:15;96407.34;;;11.38;100.00
70954;BME280;58618;47.490;8.736;2023-05-07T00:11:03;96398.13;;;11.32;100.00
70954;BME280;58618;47.490;8.736;2023-05-07T00:13:50;96396.31;;;11.33;100.00
70954;BME280;58618;47.490;8.736;2023-05-07T00:16:38;96390.38;;;11.32;100.00
70954;BME280;58618;47.490;8.736;2023-05-07T00:19:25;96386.84;;;11.28;100.00
70954;BME280;58618;47.490;8.736;2023-05-07T00:22:12;96393.91;;;11.41;100.00
70954;BME280;58618;47.490;8.736;2023-05-07T00:25:01;96392.44;;;11.35;100.00
70954;BME280;58618;47.490;8.736;2023-05-07T00:27:48;96398.72;;;11.29;100.00
70954;BME280;58618;47.490;8.736;2023-05-07T00:30:36;96392.97;;;11.32;100.00
70954;BME280;58618;47.490;8.736;2023-05-07T00:33:23;96392.44;;;11.35;100.00
70954;BME280;58618;47.490;8.736;2023-05-07T00:36:12;96389.91;;;11.30;100.00
70954;BME280;58618;47.490;8.736;2023-05-07T00:39:00;96385.91;;;11.38;100.00
70954;BME280;58618;47.490;8.736;2023-05-07T00:41:50;96385.28;;;11.27;100.00
70954;BME280;58618;47.490;8.736;2023-05-07T00:44:38;96394.16;;;11.21;100.00
70954;BME280;58618;47.490;8.736;2023-05-07T00:47:26;96394.78;;;11.13;100.00
70954;BME280;58618;47.490;8.736;2023-05-07T00:50:13;96391.16;;;11.14;100.00
70954;BME280;58618;47.490;8.736;2023-05-07T00:53:01;96383.75;;;11.08;100.00
70954;BME280;58618;47.490;8.736;2023-05-07T00:55:48;96395.28;;;11.15;100.00
70954;BME280;58618;47.490;8.736;2023-05-07T00:58:37;96396.13;;;11.29;100.00
70954;BME280;58618;47.490;8.736;2023-05-07T01:01:25;96391.81;;;11.25;100.00
70954;BME280;58618;47.490;8.736;2023-05-07T01:04:12;96392.13;;;11.18;100.00
70954;BME280;58618;47.490;8.736;2023-05-07T01:07:01;96383.19;;;11.11;100.00
70954;BME280;58618;47.490;8.736;2023-05-07T01:09:49;96376.06;;;11.02;100.00
70954;BME280;58618;47.490;8.736;2023-05-07T01:12:37;96382.78;;;11.04;100.00
70954;BME280;58618;47.490;8.736;2023-05-07T01:15:28;96387.78;;;10.95;100.00
70954;BME280;58618;47.490;8.736;2023-05-07T01:18:15;96386.19;;;10.99;100.00
70954;BME280;58618;47.490;8.736;2023-05-07T01:21:04;96390.66;;;11.12;100.00
70954;BME280;58618;47.490;8.736;2023-05-07T01:23:53;96383.19;;;10.92;100.00
70954;BME280;58618;47.490;8.736;2023-05-07T01:26:42;96394.59;;;10.86;100.00
70954;BME280;58618;47.490;8.736;2023-05-07T01:29:29;96396.13;;;10.87;100.00
70954;BME280;58618;47.490;8.736;2023-05-07T01:32:19;96392.28;;;10.84;100.00
70954;BME280;58618;47.490;8.736;2023-05-07T01:35:11;96387.91;;;10.85;100.00
70954;BME280;58618;47.490;8.736;2023-05-07T01:37:58;96393.81;;;10.85;100.00
70954;BME280;58618;47.490;8.736;2023-05-07T01:40:48;96386.81;;;10.67;100.00
70954;BME280;58618;47.490;8.736;2023-05-07T01:43:36;96384.72;;;10.69;100.00
70954;BME280;58618;47.490;8.736;2023-05-07T01:46:24;96382.91;;;10.70;100.00
70954;BME280;58618;47.490;8.736;2023-05-07T01:49:12;96391.69;;;10.69;100.00
70954;BME280;58618;47.490;8.736;2023-05-07T01:52:00;96388.13;;;10.65;100.00
70954;BME280;58618;47.490;8.736;2023-05-07T01:54:47;96388.13;;;10.65;100.00
70954;BME280;58618;47.490;8.736;2023-05-07T01:57:36;96392.31;;;10.61;100.00
70954;BME280;58618;47.490;8.736;2023-05-07T02:00:24;96386.16;;;10.56;100.00
70954;BME280;58618;47.490;8.736;2023-05-07T02:03:11;96383.03;;;10.59;100.00
70954;BME280;58618;47.490;8.736;2023-05-07T02:05:59;96385.16;;;10.52;100.00
70954;BME280;58618;47.490;8.736;2023-05-07T02:08:46;96382.09;;;10.50;100.00
70954;BME280;58618;47.490;8.736;2023-05-07T02:11:34;96385.16;;;10.52;100.00
70954;BME280;58618;47.490;8.736;2023-05-07T02:14:22;96387.78;;;10.47;100.00
70954;BME280;58618;47.490;8.736;2023-05-07T02:17:10;96397.03;;;10.53;100.00
70954;BME280;58618;47.490;8.736;2023-05-07T02:19:58;96393.72;;;10.48;100.00
70954;BME280;58618;47.490;8.736;2023-05-07T02:22:45;96396.13;;;10.39;100.00
70954;BME280;58618;47.490;8.736;2023-05-07T02:25:33;96390.06;;;10.30;100.00
70954;BME280;58618;47.490;8.736;2023-05-07T02:28:20;96388.56;;;10.24;100.00
70954;BME280;58618;47.490;8.736;2023-05-07T02:31:09;96394.69;;;10.28;100.00
70954;BME280;58618;47.490;8.736;2023-05-07T02:33:56;96392.16;;;10.23;100.00
70954;BME280;58618;47.490;8.736;2023-05-07T02:36:43;96394.78;;;10.18;100.00
70954;BME280;58618;47.490;8.736;2023-05-07T02:39:31;96402.03;;;10.11;100.00
70954;BME280;58618;47.490;8.736;2023-05-07T02:42:18;96408.22;;;10.10;100.00
70954;BME280;58618;47.490;8.736;2023-05-07T02:45:07;96406.72;;;10.09;100.00
70954;BME280;58618;47.490;8.736;2023-05-07T02:47:56;96403.16;;;10.00;100.00
70954;BME280;58618;47.490;8.736;2023-05-07T02:50:43;96413.16;;;10.06;100.00
70954;BME280;58618;47.490;8.736;2023-05-07T02:53:31;96414.78;;;9.97;100.00
70954;BME280;58618;47.490;8.736;2023-05-07T02:56:18;96408.38;;;9.90;100.00
70954;BME280;58618;47.490;8.736;2023-05-07T02:59:05;96415.84;;;9.91;100.00
70954;BME280;58618;47.490;8.736;2023-05-07T03:01:53;96415.09;;;9.91;100.00
70954;BME280;58618;47.490;8.736;2023-05-07T03:04:41;96414.09;;;9.87;100.00
70954;BME280;58618;47.490;8.736;2023-05-07T03:07:29;96414.34;;;9.85;100.00
70954;BME280;58618;47.490;8.736;2023-05-07T03:10:16;96416.75;;;9.77;100.00
70954;BME280;58618;47.490;8.736;2023-05-07T03:13:04;96415.78;;;9.67;100.00
70954;BME280;58618;47.490;8.736;2023-05-07T03:15:52;96408.06;;;9.62;100.00
70954;BME280;58618;47.490;8.736;2023-05-07T03:18:39;96413.22;;;9.62;100.00
70954;BME280;58618;47.490;8.736;2023-05-07T03:21:28;96401.00;;;9.44;100.00
70954;BME280;58618;47.490;8.736;2023-05-07T03:24:15;96412.84;;;9.45;100.00
70954;BME280;58618;47.490;8.736;2023-05-07T03:27:03;96411.53;;;9.43;100.00
70954;BME280;58618;47.490;8.736;2023-05-07T03:29:50;96408.22;;;9.37;100.00
70954;BME280;58618;47.490;8.736;2023-05-07T03:32:37;96404.13;;;9.36;100.00
70954;BME280;58618;47.490;8.736;2023-05-07T03:35:25;96396.16;;;9.32;100.00
70954;BME280;58618;47.490;8.736;2023-05-07T03:38:14;96392.09;;;9.21;100.00
70954;BME280;58618;47.490;8.736;2023-05-07T03:41:01;96396.25;;;9.17;100.00
70954;BME280;58618;47.490;8.736;2023-05-07T03:43:48;96405.78;;;9.17;100.00
70954;BME280;58618;47.490;8.736;2023-05-07T03:46:36;96411.97;;;9.11;100.00
70954;BME280;58618;47.490;8.736;2023-05-07T03:49:23;96424.81;;;9.16;100.00
70954;BME280;58618;47.490;8.736;2023-05-07T03:52:10;96415.06;;;9.13;100.00
70954;BME280;58618;47.490;8.736;2023-05-07T03:55:00;96422.75;;;9.18;100.00
70954;BME280;58618;47.490;8.736;2023-05-07T03:57:48;96417.38;;;9.14;100.00
70954;BME280;58618;47.490;8.736;2023-05-07T04:00:35;96428.41;;;9.20;100.00
70954;BME280;58618;47.490;8.736;2023-05-07T04:03:24;96432.53;;;9.16;100.00
70954;BME280;58618;47.490;8.736;2023-05-07T04:06:11;96431.75;;;9.15;100.00
70954;BME280;58618;47.490;8.736;2023-05-07T04:08:59;96431.44;;;9.27;100.00
70954;BME280;58618;47.490;8.736;2023-05-07T04:11:47;96428.84;;;9.32;100.00
70954;BME280;58618;47.490;8.736;2023-05-07T04:14:35;96428.34;;;9.35;100.00
70954;BME280;58618;47.490;8.736;2023-05-07T04:17:22;96438.63;;;9.35;100.00
70954;BME280;58618;47.490;8.736;2023-05-07T04:20:14;96430.56;;;9.47;100.00
70954;BME280;58618;47.490;8.736;2023-05-07T04:23:01;96437.53;;;9.51;100.00
70954;BME280;58618;47.490;8.736;2023-05-07T04:25:48;96436.16;;;9.59;100.00
70954;BME280;58618;47.490;8.736;2023-05-07T04:28:38;96428.44;;;9.59;100.00
70954;BME280;58618;47.490;8.736;2023-05-07T04:31:26;96435.84;;;9.70;100.00
70954;BME280;58618;47.490;8.736;2023-05-07T04:34:13;96435.50;;;9.82;100.00
70954;BME280;58618;47.490;8.736;2023-05-07T04:37:00;96433.94;;;9.86;100.00
70954;BME280;58618;47.490;8.736;2023-05-07T04:39:49;96440.84;;;9.91;100.00
70954;BME280;58618;47.490;8.736;2023-05-07T04:42:36;96441.53;;;10.01;100.00
70954;BME280;58618;47.490;8.736;2023-05-07T04:45:25;96442.31;;;10.02;100.00
70954;BME280;58618;47.490;8.736;2023-05-07T04:48:13;96442.72;;;10.19;100.00
70954;BME280;58618;47.490;8.736;2023-05-07T04:51:02;96447.78;;;10.29;100.00
70954;BME280;58618;47.490;8.736;2023-05-07T04:53:49;96456.94;;;10.45;100.00
70954;BME280;58618;47.490;8.736;2023-05-07T04:56:37;96442.81;;;10.67;100.00
70954;BME280;58618;47.490;8.736;2023-05-07T04:59:24;96447.91;;;10.72;100.00
70954;BME280;58618;47.490;8.736;2023-05-07T05:02:13;96453.88;;;10.91;100.00
70954;BME280;58618;47.490;8.736;2023-05-07T05:05:01;96470.56;;;11.22;100.00
70954;BME280;58618;47.490;8.736;2023-05-07T05:07:48;96468.78;;;11.41;100.00
70954;BME280;58618;47.490;8.736;2023-05-07T05:10:37;96467.06;;;11.56;100.00
70954;BME280;58618;47.490;8.736;2023-05-07T05:13:24;96469.88;;;11.78;100.00
70954;BME280;58618;47.490;8.736;2023-05-07T05:16:12;96474.47;;;11.81;100.00
70954;BME280;58618;47.490;8.736;2023-05-07T05:19:01;96477.88;;;11.95;100.00
70954;BME280;58618;47.490;8.736;2023-05-07T05:21:49;96486.41;;;12.14;100.00
70954;BME280;58618;47.490;8.736;2023-05-07T05:24:36;96474.78;;;12.31;100.00
70954;BME280;58618;47.490;8.736;2023-05-07T05:27:24;96480.16;;;12.48;100.00
70954;BME280;58618;47.490;8.736;2023-05-07T05:30:12;96476.03;;;12.79;100.00
70954;BME280;58618;47.490;8.736;2023-05-07T05:32:59;96474.50;;;13.05;100.00
70954;BME280;58618;47.490;8.736;2023-05-07T05:35:49;96475.06;;;13.30;100.00
70954;BME280;58618;47.490;8.736;2023-05-07T05:38:36;96464.19;;;13.55;100.00
70954;BME280;58618;47.490;8.736;2023-05-07T05:41:24;96477.44;;;13.89;100.00
70954;BME280;58618;47.490;8.736;2023-05-07T05:44:12;96475.25;;;14.80;100.00
70954;BME280;58618;47.490;8.736;2023-05-07T05:46:59;96479.28;;;14.56;100.00
70954;BME280;58618;47.490;8.736;2023-05-07T05:49:47;96474.44;;;14.18;100.00
70954;BME280;58618;47.490;8.736;2023-05-07T05:52:35;96473.56;;;14.45;100.00
70954;BME280;58618;47.490;8.736;2023-05-07T05:55:23;96475.84;;;14.69;100.00
70954;BME280;58618;47.490;8.736;2023-05-07T05:58:10;96479.69;;;14.49;100.00
70954;BME280;58618;47.490;8.736;2023-05-07T06:00:58;96479.81;;;14.22;100.00
70954;BME280;58618;47.490;8.736;2023-05-07T06:03:45;96477.97;;;14.22;100.00
70954;BME280;58618;47.490;8.736;2023-05-07T06:06:32;96488.41;;;14.31;100.00
70954;BME280;58618;47.490;8.736;2023-05-07T06:09:21;96498.66;;;14.14;100.00
70954;BME280;58618;47.490;8.736;2023-05-07T06:12:08;96485.94;;;14.26;100.00
70954;BME280;58618;47.490;8.736;2023-05-07T06:14:56;96501.16;;;14.63;100.00
70954;BME280;58618;47.490;8.736;2023-05-07T06:17:43;96501.13;;;14.86;100.00
70954;BME280;58618;47.490;8.736;2023-05-07T06:20:30;96508.31;;;14.89;100.00
70954;BME280;58618;47.490;8.736;2023-05-07T06:23:18;96504.47;;;15.34;100.00
70954;BME280;58618;47.490;8.736;2023-05-07T06:26:06;96496.13;;;17.04;99.11
70954;BME280;58618;47.490;8.736;2023-05-07T06:28:54;96510.88;;;18.42;89.83
70954;BME280;58618;47.490;8.736;2023-05-07T06:31:41;96518.66;;;19.44;83.09
70954;BME280;58618;47.490;8.736;2023-05-07T06:34:28;96523.16;;;20.63;76.50
70954;BME280;58618;47.490;8.736;2023-05-07T06:37:16;96523.19;;;21.42;71.41
70954;BME280;58618;47.490;8.736;2023-05-07T06:40:05;96526.06;;;20.46;76.08
70954;BME280;58618;47.490;8.736;2023-05-07T06:42:54;96525.31;;;20.18;76.94
70954;BME280;58618;47.490;8.736;2023-05-07T06:45:41;96529.63;;;19.98;77.80
70954;BME280;58618;47.490;8.736;2023-05-07T06:48:29;96526.28;;;19.73;76.68
70954;BME280;58618;47.490;8.736;2023-05-07T06:51:16;96537.16;;;18.90;83.16
70954;BME280;58618;47.490;8.736;2023-05-07T06:54:03;96527.28;;;17.68;88.08
70954;BME280;58618;47.490;8.736;2023-05-07T06:56:51;96533.13;;;17.56;90.15
70954;BME280;58618;47.490;8.736;2023-05-07T06:59:40;96531.47;;;17.52;89.60
70954;BME280;58618;47.490;8.736;2023-05-07T07:02:27;96517.38;;;17.53;87.89
70954;BME280;58618;47.490;8.736;2023-05-07T07:05:14;96528.88;;;17.22;91.07
70954;BME280;58618;47.490;8.736;2023-05-07T07:08:01;96524.28;;;17.99;89.88
70954;BME280;58618;47.490;8.736;2023-05-07T07:10:49;96524.28;;;18.20;85.83
70954;BME280;58618;47.490;8.736;2023-05-07T07:13:36;96527.13;;;18.47;86.09
70954;BME280;58618;47.490;8.736;2023-05-07T07:16:26;96525.97;;;19.26;76.90
70954;BME280;58618;47.490;8.736;2023-05-07T07:19:14;96530.28;;;19.95;74.38
70954;BME280;58618;47.490;8.736;2023-05-07T07:22:02;96536.31;;;19.11;80.95
70954;BME280;58618;47.490;8.736;2023-05-07T07:24:49;96524.56;;;20.45;72.62
70954;BME280;58618;47.490;8.736;2023-05-07T07:27:37;96522.34;;;21.06;67.00
70954;BME280;58618;47.490;8.736;2023-05-07T07:30:26;96519.81;;;22.30;62.32
70954;BME280;58618;47.490;8.736;2023-05-07T07:33:14;96532.31;;;22.79;58.44
70954;BME280;58618;47.490;8.736;2023-05-07T07:36:02;96521.78;;;22.98;59.34
70954;BME280;58618;47.490;8.736;2023-05-07T07:38:49;96521.16;;;22.86;59.51
70954;BME280;58618;47.490;8.736;2023-05-07T07:41:37;96515.63;;;21.56;66.97
70954;BME280;58618;47.490;8.736;2023-05-07T07:44:24;96522.00;;;21.08;65.06
70954;BME280;58618;47.490;8.736;2023-05-07T07:47:11;96521.19;;;21.89;63.85
70954;BME280;58618;47.490;8.736;2023-05-07T07:50:00;96526.03;;;22.42;62.98
70954;BME280;58618;47.490;8.736;2023-05-07T07:52:48;96530.53;;;23.06;60.12
70954;BME280;58618;47.490;8.736;2023-05-07T07:55:38;96531.72;;;23.58;57.52
70954;BME280;58618;47.490;8.736;2023-05-07T07:58:25;96530.28;;;23.14;56.05
70954;BME280;58618;47.490;8.736;2023-05-07T08:03:53;96533.19;;;22.45;58.15
70954;BME280;58618;47.490;8.736;2023-05-07T08:06:42;96534.78;;;22.49;58.77
70954;BME280;58618;47.490;8.736;2023-05-07T08:09:30;96544.00;;;23.76;57.44
70954;BME280;58618;47.490;8.736;2023-05-07T08:12:17;96533.78;;;23.71;56.58
70954;BME280;58618;47.490;8.736;2023-05-07T08:15:05;96544.81;;;23.80;58.45
70954;BME280;58618;47.490;8.736;2023-05-07T08:17:53;96535.47;;;21.88;59.70
70954;BME280;58618;47.490;8.736;2023-05-07T08:20:42;96541.78;;;22.03;62.82
70954;BME280;58618;47.490;8.736;2023-05-07T08:23:30;96532.78;;;21.69;62.63
70954;BME280;58618;47.490;8.736;2023-05-07T08:26:18;96539.59;;;21.55;60.80
70954;BME280;58618;47.490;8.736;2023-05-07T08:29:06;96519.44;;;21.59;58.58
70954;BME280;58618;47.490;8.736;2023-05-07T08:31:53;96539.34;;;22.71;60.11
70954;BME280;58618;47.490;8.736;2023-05-07T08:34:41;96537.97;;;22.39;62.86
70954;BME280;58618;47.490;8.736;2023-05-07T08:37:28;96536.66;;;22.10;59.77
70954;BME280;58618;47.490;8.736;2023-05-07T08:40:17;96544.53;;;23.36;54.08
70954;BME280;58618;47.490;8.736;2023-05-07T08:43:05;96534.03;;;22.10;57.59
70954;BME280;58618;47.490;8.736;2023-05-07T08:45:54;96523.19;;;21.77;59.66
70954;BME280;58618;47.490;8.736;2023-05-07T08:48:42;96535.91;;;21.75;62.32
70954;BME280;58618;47.490;8.736;2023-05-07T08:51:29;96542.97;;;21.55;61.42
70954;BME280;58618;47.490;8.736;2023-05-07T08:54:18;96544.13;;;22.08;63.01
70954;BME280;58618;47.490;8.736;2023-05-07T08:57:07;96531.13;;;22.35;59.41
70954;BME280;58618;47.490;8.736;2023-05-07T08:59:55;96545.19;;;21.88;62.37
70954;BME280;58618;47.490;8.736;2023-05-07T09:02:42;96545.91;;;22.62;59.44
70954;BME280;58618;47.490;8.736;2023-05-07T09:05:29;96539.03;;;22.35;62.69
70954;BME280;58618;47.490;8.736;2023-05-07T09:08:17;96533.06;;;22.18;62.11
70954;BME280;58618;47.490;8.736;2023-05-07T09:11:04;96526.66;;;22.58;59.43
70954;BME280;58618;47.490;8.736;2023-05-07T09:13:55;96536.28;;;21.58;59.95
70954;BME280;58618;47.490;8.736;2023-05-07T09:16:43;96539.63;;;21.74;63.00
70954;BME280;58618;47.490;8.736;2023-05-07T09:19:31;96531.28;;;21.53;59.05
70954;BME280;58618;47.490;8.736;2023-05-07T09:22:18;96524.00;;;21.62;62.90
70954;BME280;58618;47.490;8.736;2023-05-07T09:25:07;96532.91;;;22.50;61.79
70954;BME280;58618;47.490;8.736;2023-05-07T09:27:55;96534.31;;;22.05;63.53
70954;BME280;58618;47.490;8.736;2023-05-07T09:30:43;96534.25;;;21.67;61.60
70954;BME280;58618;47.490;8.736;2023-05-07T09:33:31;96532.81;;;22.65;62.34
70954;BME280;58618;47.490;8.736;2023-05-07T09:36:19;96535.16;;;23.39;58.25
70954;BME280;58618;47.490;8.736;2023-05-07T09:39:06;96527.34;;;22.74;62.26
70954;BME280;58618;47.490;8.736;2023-05-07T09:41:54;96520.09;;;22.25;62.86
70954;BME280;58618;47.490;8.736;2023-05-07T09:44:43;96519.06;;;22.72;60.88
70954;BME280;58618;47.490;8.736;2023-05-07T09:47:32;96515.47;;;23.29;60.55
70954;BME280;58618;47.490;8.736;2023-05-07T09:50:21;96511.84;;;22.69;56.51
70954;BME280;58618;47.490;8.736;2023-05-07T09:53:09;96508.03;;;23.35;61.60
70954;BME280;58618;47.490;8.736;2023-05-07T09:55:57;96501.97;;;23.31;57.55
70954;BME280;58618;47.490;8.736;2023-05-07T09:58:46;96505.72;;;24.16;54.08
70954;BME280;58618;47.490;8.736;2023-05-07T10:01:36;96508.03;;;23.35;58.52
70954;BME280;58618;47.490;8.736;2023-05-07T10:04:25;96504.66;;;23.11;58.98
70954;BME280;58618;47.490;8.736;2023-05-07T10:07:14;96503.16;;;23.10;58.69
70954;BME280;58618;47.490;8.736;2023-05-07T10:10:02;96494.41;;;23.03;61.67
70954;BME280;58618;47.490;8.736;2023-05-07T10:12:50;96493.38;;;23.60;56.52
70954;BME280;58618;47.490;8.736;2023-05-07T10:15:38;96486.69;;;23.66;56.84
70954;BME280;58618;47.490;8.736;2023-05-07T10:18:26;96496.38;;;23.09;61.42
70954;BME280;58618;47.490;8.736;2023-05-07T10:21:18;96490.88;;;22.95;61.05
70954;BME280;58618;47.490;8.736;2023-05-07T10:24:09;96480.91;;;22.40;58.64
70954;BME280;58618;47.490;8.736;2023-05-07T10:27:01;96477.28;;;22.25;60.58
70954;BME280;58618;47.490;8.736;2023-05-07T10:29:53;96473.00;;;21.98;62.12
70954;BME280;58618;47.490;8.736;2023-05-07T10:32:47;96452.56;;;22.94;64.14
70954;BME280;58618;47.490;8.736;2023-05-07T10:35:39;96473.09;;;23.11;63.71
70954;BME280;58618;47.490;8.736;2023-05-07T10:38:29;96481.31;;;23.59;58.50
70954;BME280;58618;47.490;8.736;2023-05-07T10:41:16;96471.06;;;23.28;56.36
70954;BME280;58618;47.490;8.736;2023-05-07T10:44:04;96465.72;;;22.94;60.52
70954;BME280;58618;47.490;8.736;2023-05-07T10:47:06;96459.84;;;23.31;60.83
70954;BME280;58618;47.490;8.736;2023-05-07T10:50:20;96458.63;;;23.51;60.34
70954;BME280;58618;47.490;8.736;2023-05-07T10:53:21;96459.94;;;23.11;63.91
70954;BME280;58618;47.490;8.736;2023-05-07T10:56:26;96456.03;;;23.28;60.85
70954;BME280;58618;47.490;8.736;2023-05-07T10:59:33;96453.75;;;23.27;62.82
70954;BME280;58618;47.490;8.736;2023-05-07T11:05:47;96442.31;;;22.89;63.63
70954;BME280;58618;47.490;8.736;2023-05-07T11:08:52;96440.00;;;23.63;61.20
70954;BME280;58618;47.490;8.736;2023-05-07T11:11:48;96440.78;;;23.67;58.56
70954;BME280;58618;47.490;8.736;2023-05-07T11:14:43;96435.84;;;22.83;65.19
70954;BME280;58618;47.490;8.736;2023-05-07T11:17:31;96437.63;;;22.56;64.35
70954;BME280;58618;47.490;8.736;2023-05-07T11:20:20;96440.09;;;22.91;63.39
70954;BME280;58618;47.490;8.736;2023-05-07T11:23:08;96435.53;;;23.67;58.60
70954;BME280;58618;47.490;8.736;2023-05-07T11:25:58;96426.13;;;23.40;60.62
70954;BME280;58618;47.490;8.736;2023-05-07T11:28:48;96440.25;;;23.54;60.19
70954;BME280;58618;47.490;8.736;2023-05-07T11:31:35;96438.66;;;22.71;63.21
70954;BME280;58618;47.490;8.736;2023-05-07T11:34:25;96445.91;;;22.58;63.92
70954;BME280;58618;47.490;8.736;2023-05-07T11:37:16;96428.50;;;22.27;65.65
70954;BME280;58618;47.490;8.736;2023-05-07T11:40:05;96437.38;;;23.10;60.65
70954;BME280;58618;47.490;8.736;2023-05-07T11:42:52;96436.06;;;23.50;57.26
70954;BME280;58618;47.490;8.736;2023-05-07T11:45:41;96441.19;;;22.90;65.22
70954;BME280;58618;47.490;8.736;2023-05-07T11:48:28;96439.13;;;22.77;65.54
70954;BME280;58618;47.490;8.736;2023-05-07T11:51:19;96439.78;;;22.96;64.97
70954;BME280;58618;47.490;8.736;2023-05-07T11:54:08;96442.34;;;22.70;63.73
70954;BME280;58618;47.490;8.736;2023-05-07T11:56:57;96438.06;;;22.81;63.36
70954;BME280;58618;47.490;8.736;2023-05-07T11:59:51;96442.47;;;23.82;58.13
70954;BME280;58618;47.490;8.736;2023-05-07T12:02:40;96436.78;;;24.14;55.63
70954;BME280;58618;47.490;8.736;2023-05-07T12:05:28;96436.03;;;24.13;55.05
70954;BME280;58618;47.490;8.736;2023-05-07T12:08:18;96439.59;;;23.35;62.88
70954;BME280;58618;47.490;8.736;2023-05-07T12:11:11;96445.44;;;23.77;59.59
70954;BME280;58618;47.490;8.736;2023-05-07T12:13:59;96437.56;;;24.14;58.23
70954;BME280;58618;47.490;8.736;2023-05-07T12:16:47;96442.22;;;23.35;62.75
70954;BME280;58618;47.490;8.736;2023-05-07T12:19:37;96433.09;;;23.55;63.10
70954;BME280;58618;47.490;8.736;2023-05-07T12:22:25;96427.06;;;23.84;63.50
70954;BME280;58618;47.490;8.736;2023-05-07T12:25:16;96430.25;;;24.00;58.13
70954;BME280;58618;47.490;8.736;2023-05-07T12:28:05;96425.06;;;24.11;56.89
70954;BME280;58618;47.490;8.736;2023-05-07T12:30:53;96428.16;;;24.17;55.33
70954;BME280;58618;47.490;8.736;2023-05-07T12:33:40;96424.09;;;24.23;56.45
70954;BME280;58618;47.490;8.736;2023-05-07T12:36:37;96427.47;;;23.86;59.22
70954;BME280;58618;47.490;8.736;2023-05-07T12:39:25;96426.06;;;23.96;54.72
70954;BME280;58618;47.490;8.736;2023-05-07T12:42:15;96425.69;;;23.97;55.87
70954;BME280;58618;47.490;8.736;2023-05-07T12:45:08;96425.22;;;23.88;54.40
70954;BME280;58618;47.490;8.736;2023-05-07T12:47:56;96427.22;;;23.65;55.93
70954;BME280;58618;47.490;8.736;2023-05-07T12:50:49;96421.94;;;23.65;53.69
70954;BME280;58618;47.490;8.736;2023-05-07T12:53:40;96424.78;;;23.83;54.69
70954;BME280;58618;47.490;8.736;2023-05-07T12:56:30;96415.97;;;23.68;52.92
70954;BME280;58618;47.490;8.736;2023-05-07T12:59:18;96414.59;;;23.81;53.13
70954;BME280;58618;47.490;8.736;2023-05-07T13:02:07;96416.97;;;23.56;59.07
70954;BME280;58618;47.490;8.736;2023-05-07T13:04:55;96420.78;;;23.63;57.37
70954;BME280;58618;47.490;8.736;2023-05-07T13:07:52;96421.31;;;24.09;54.59
70954;BME280;58618;47.490;8.736;2023-05-07T13:10:42;96411.69;;;23.90;55.28
70954;BME280;58618;47.490;8.736;2023-05-07T13:13:30;96410.22;;;23.92;55.30
70954;BME280;58618;47.490;8.736;2023-05-07T13:16:18;96415.06;;;23.90;54.23
70954;BME280;58618;47.490;8.736;2023-05-07T13:19:05;96407.91;;;23.87;55.61
70954;BME280;58618;47.490;8.736;2023-05-07T13:21:53;96409.00;;;23.53;57.63
70954;BME280;58618;47.490;8.736;2023-05-07T13:24:41;96403.34;;;23.51;54.61
70954;BME280;58618;47.490;8.736;2023-05-07T13:27:31;96405.06;;;23.40;57.25
70954;BME280;58618;47.490;8.736;2023-05-07T13:30:21;96401.94;;;23.31;57.35
70954;BME280;58618;47.490;8.736;2023-05-07T13:33:09;96405.88;;;23.17;57.09
70954;BME280;58618;47.490;8.736;2023-05-07T13:35:57;96393.06;;;23.16;60.58
70954;BME280;58618;47.490;8.736;2023-05-07T13:38:46;96393.00;;;22.83;63.95
70954;BME280;58618;47.490;8.736;2023-05-07T13:41:34;96392.44;;;22.96;61.56
70954;BME280;58618;47.490;8.736;2023-05-07T13:44:23;96380.06;;;22.74;64.28
70954;BME280;58618;47.490;8.736;2023-05-07T13:47:11;96383.84;;;22.73;65.87
70954;BME280;58618;47.490;8.736;2023-05-07T13:50:00;96382.22;;;22.91;65.75
70954;BME280;58618;47.490;8.736;2023-05-07T13:52:48;96387.78;;;22.86;65.16
70954;BME280;58618;47.490;8.736;2023-05-07T13:55:37;96394.38;;;23.29;62.16
70954;BME280;58618;47.490;8.736;2023-05-07T13:58:26;96388.81;;;23.64;60.34
70954;BME280;58618;47.490;8.736;2023-05-07T14:01:15;96399.34;;;23.64;59.56
70954;BME280;58618;47.490;8.736;2023-05-07T14:04:04;96407.66;;;23.66;56.33
70954;BME280;58618;47.490;8.736;2023-05-07T14:06:52;96413.56;;;23.56;54.64
70954;BME280;58618;47.490;8.736;2023-05-07T14:09:40;96404.50;;;23.53;54.67
70954;BME280;58618;47.490;8.736;2023-05-07T14:12:32;96421.94;;;23.09;62.70
70954;BME280;58618;47.490;8.736;2023-05-07T14:15:20;96382.41;;;22.79;58.14
70954;BME280;58618;47.490;8.736;2023-05-07T14:18:09;96410.22;;;22.80;60.67
70954;BME280;58618;47.490;8.736;2023-05-07T14:20:57;96403.81;;;22.55;61.08
70954;BME280;58618;47.490;8.736;2023-05-07T14:23:45;96405.38;;;22.37;60.63
70954;BME280;58618;47.490;8.736;2023-05-07T14:26:33;96401.59;;;22.34;61.04
70954;BME280;58618;47.490;8.736;2023-05-07T14:29:21;96416.53;;;22.30;62.95
70954;BME280;58618;47.490;8.736;2023-05-07T14:32:10;96408.09;;;21.98;63.59
70954;BME280;58618;47.490;8.736;2023-05-07T14:35:00;96414.09;;;21.99;62.65
70954;BME280;58618;47.490;8.736;2023-05-07T14:37:48;96415.78;;;22.10;62.67
70954;BME280;58618;47.490;8.736;2023-05-07T14:40:37;96414.66;;;21.88;63.09
70954;BME280;58618;47.490;8.736;2023-05-07T14:43:24;96402.00;;;21.56;65.49
70954;BME280;58618;47.490;8.736;2023-05-07T14:46:12;96406.91;;;21.22;69.25
70954;BME280;58618;47.490;8.736;2023-05-07T14:49:02;96418.69;;;21.28;67.05
70954;BME280;58618;47.490;8.736;2023-05-07T14:51:53;96401.44;;;20.96;69.32
70954;BME280;58618;47.490;8.736;2023-05-07T14:54:41;96418.97;;;21.42;68.53
70954;BME280;58618;47.490;8.736;2023-05-07T14:57:29;96420.38;;;21.21;69.52